createdAt,value
2022-10-18T00:13:20.321Z,17.32
2022-10-18T00:43:24.492Z,17.25
2022-10-18T01:13:36.618Z,17.21
2022-10-18T01:43:41.105Z,17.03
2022-10-18T02:44:22.484Z,16.85
2022-10-18T03:14:26.628Z,16.59
2022-10-18T03:44:30.737Z,16.71
2022-10-18T04:14:34.846Z,16.80
2022-10-18T04:44:38.962Z,16.82
2022-10-18T05:14:43.090Z,16.78
2022-10-18T05:44:47.649Z,16.75
2022-10-18T06:14:51.788Z,16.71
2022-10-18T06:44:56.018Z,16.77
2022-10-18T07:15:00.382Z,16.97
2022-10-18T07:45:04.899Z,17.09
2022-10-18T08:15:10.954Z,17.47
2022-10-18T08:45:30.042Z,17.95
2022-10-18T09:15:42.277Z,18.39
2022-10-18T09:45:46.827Z,17.98
2022-10-18T10:15:56.147Z,19.69
2022-10-18T10:46:02.854Z,20.47
2022-10-18T11:16:13.227Z,22.05
2022-10-18T11:46:28.066Z,23.87
2022-10-18T12:16:50.882Z,22.27
2022-10-18T12:46:58.273Z,21.09
2022-10-18T13:17:06.369Z,21.02
2022-10-18T13:47:15.019Z,19.63
2022-10-18T14:17:28.446Z,18.95
2022-10-18T14:47:36.210Z,25.80
2022-10-18T15:17:41.386Z,24.61
2022-10-18T15:48:00.124Z,19.89
2022-10-18T16:18:04.488Z,17.96
2022-10-18T16:48:10.032Z,16.68
2022-10-18T17:18:16.398Z,15.88
2022-10-18T17:48:20.667Z,15.38
2022-10-18T18:18:24.980Z,15.16
2022-10-18T18:48:29.636Z,14.97
2022-10-18T19:18:33.811Z,14.74
2022-10-18T19:48:38.001Z,14.36
2022-10-18T20:18:43.053Z,13.96
2022-10-18T20:48:48.215Z,13.83
2022-10-18T21:18:52.372Z,13.57
2022-10-18T21:48:57.844Z,13.27
2022-10-18T22:19:03.954Z,12.98
2022-10-18T22:49:08.098Z,12.56
2022-10-18T23:19:15.725Z,12.33
2022-10-18T23:49:19.804Z,11.97
